Time;durP1;ratioP1;P1;durP2;ratioP2;P2;SDS_P1;SDS_P2;PMS_P1;PMS_P2;Temp;Humidity;BMP_temperature;BMP_pressure;BME280_temperature;BME280_humidity;BME280_pressure;Samples;Min_cycle;Max_cycle;Signal;HPM_P1;HPM_P2
2022/06/22 00:01:51;;;;;;;8.60;5.70;;;;;;;29.35;39.83;100631.25;5007832;28;20089;-79
2022/06/22 00:04:37;;;;;;;7.28;5.68;;;;;;;29.81;39.87;100723.81;5009570;28;20045;-78
2022/06/22 00:07:11;;;;;;;5.95;5.35;;;;;;;29.73;41.46;100724.28;4991210;28;20518;-77
2022/06/22 00:09:40;;;;;;;7.57;5.07;;;;;;;29.70;40.36;100733.03;4988665;28;20081;-79
2022/06/22 00:12:20;;;;;;;7.25;5.55;;;;;;;29.66;40.33;100720.91;4990115;28;20093;-79
2022/06/22 00:14:52;;;;;;;9.07;5.78;;;;;;;29.67;40.40;100723.44;4970403;28;20042;-78
2022/06/22 00:17:26;;;;;;;8.50;5.97;;;;;;;29.86;41.23;100740.28;4988497;28;20054;-79
2022/06/22 00:20:05;;;;;;;9.77;5.70;;;;;;;29.68;41.13;100726.97;4988248;28;20211;-78
2022/06/22 00:22:52;;;;;;;6.68;6.07;;;;;;;29.70;39.98;100742.06;4986556;28;20255;-78
2022/06/22 00:25:37;;;;;;;7.85;6.00;;;;;;;29.54;40.29;100724.66;4986009;28;20473;-78
2022/06/22 00:28:23;;;;;;;5.45;4.90;;;;;;;29.70;40.37;100744.78;4986915;28;20140;-78
2022/06/22 00:30:49;;;;;;;7.70;5.97;;;;;;;29.56;40.16;100727.94;5003197;28;20476;-78
2022/06/22 00:33:22;;;;;;;10.93;5.55;;;;;;;29.55;40.16;100734.50;4988340;28;20054;-77
2022/06/22 00:36:14;;;;;;;10.40;5.93;;;;;;;29.39;40.44;100728.06;4988413;28;20048;-77
2022/06/22 00:38:41;;;;;;;8.90;6.13;;;;;;;29.10;40.60;100685.66;4990528;28;20527;-79
2022/06/22 00:41:22;;;;;;;11.43;5.68;;;;;;;29.28;40.89;100725.50;4991692;28;20376;-78
2022/06/22 00:43:52;;;;;;;9.65;6.20;;;;;;;29.19;41.52;100709.53;5006772;28;20097;-81
2022/06/22 00:46:22;;;;;;;8.88;5.50;;;;;;;29.31;41.05;100724.97;5007532;28;20128;-78
2022/06/22 00:48:52;;;;;;;10.07;6.53;;;;;;;29.38;40.80;100725.59;5006476;28;20050;-78
2022/06/22 00:51:29;;;;;;;6.27;5.03;;;;;;;29.29;40.54;100727.13;5006848;28;20046;-79
2022/06/22 00:54:03;;;;;;;8.55;5.65;;;;;;;28.96;40.96;100690.69;5005717;28;20097;-78
2022/06/22 00:56:36;;;;;;;7.63;6.22;;;;;;;29.17;41.12;100713.63;4989027;28;20066;-78
2022/06/22 00:59:20;;;;;;;7.05;5.85;;;;;;;29.22;42.06;100710.94;4989256;28;20316;-79
2022/06/22 01:02:16;;;;;;;7.47;5.78;;;;;;;29.03;41.37;100699.53;4989333;28;20058;-79
2022/06/22 01:04:55;;;;;;;9.32;5.88;;;;;;;29.24;41.91;100716.16;4987540;28;20062;-79
2022/06/22 01:07:28;;;;;;;6.43;5.43;;;;;;;29.22;40.64;100715.59;4992854;28;20038;-79
2022/06/22 01:10:24;;;;;;;9.00;6.15;;;;;;;29.05;40.57;100711.00;5002998;28;20294;-79
2022/06/22 01:13:01;;;;;;;5.90;5.38;;;;;;;29.05;40.23;100716.47;4995512;28;20054;-79
2022/06/22 01:15:35;;;;;;;7.90;5.38;;;;;;;28.79;41.02;100704.44;5005417;28;20074;-79
2022/06/22 01:18:19;;;;;;;9.88;5.65;;;;;;;28.95;40.80;100735.47;4989223;28;20416;-80
2022/06/22 01:21:08;;;;;;;7.22;4.93;;;;;;;28.66;40.42;100677.50;5005197;28;20058;-79
2022/06/22 01:23:50;;;;;;;5.90;5.25;;;;;;;28.98;40.46;100732.22;5005460;28;20047;-79
2022/06/22 01:26:32;;;;;;;10.55;6.10;;;;;;;29.02;40.14;100727.91;5004958;28;20116;-79
2022/06/22 01:29:01;;;;;;;13.80;5.70;;;;;;;28.87;40.25;100714.91;5005981;28;20142;-79
2022/06/22 01:31:29;;;;;;;9.27;5.80;;;;;;;28.31;40.37;100613.16;4990000;28;20050;-78
2022/06/22 01:33:56;;;;;;;6.43;5.35;;;;;;;28.93;40.62;100727.56;4989564;28;20497;-78
2022/06/22 01:36:30;;;;;;;8.35;5.65;;;;;;;28.96;40.33;100737.16;5005280;28;20054;-79
2022/06/22 01:38:57;;;;;;;9.43;5.53;;;;;;;28.77;40.51;100696.50;4992653;28;20128;-79
2022/06/22 01:41:31;;;;;;;5.18;4.65;;;;;;;28.82;40.51;100706.66;5005959;28;20562;-77
2022/06/22 01:44:26;;;;;;;9.18;6.28;;;;;;;28.95;40.30;100728.09;5008421;28;20054;-80
2022/06/22 01:47:25;;;;;;;8.75;5.85;;;;;;;28.95;40.24;100727.28;5008194;28;20058;-79
2022/06/22 01:50:03;;;;;;;8.55;5.47;;;;;;;28.55;41.17;100677.38;5009656;28;20069;-80
2022/06/22 01:52:53;;;;;;;9.32;6.13;;;;;;;28.94;40.54;100742.03;5007930;28;20515;-80
2022/06/22 01:55:33;;;;;;;6.82;5.93;;;;;;;28.40;40.85;100654.47;4994472;28;20079;-79
2022/06/22 01:58:24;;;;;;;8.65;5.13;;;;;;;28.87;40.80;100727.75;4991676;28;20137;-79
2022/06/22 02:00:57;;;;;;;7.65;5.78;;;;;;;28.79;40.88;100717.25;4991792;28;20080;-80
2022/06/22 02:03:39;;;;;;;7.07;5.60;;;;;;;28.92;41.00;100727.81;5007985;28;20137;-80
2022/06/22 02:09:10;;;;;;;6.00;5.35;;;;;;;28.88;41.38;100737.59;5009624;28;20123;-79
2022/06/22 02:11:43;;;;;;;6.05;5.45;;;;;;;28.64;41.33;100698.78;5009462;28;20104;-80
2022/06/22 02:14:18;;;;;;;5.97;5.25;;;;;;;28.76;41.46;100721.31;5008493;28;20120;-80
2022/06/22 02:16:53;;;;;;;6.50;5.50;;;;;;;28.40;41.11;100668.13;4990799;28;20105;-79
2022/06/22 02:19:21;;;;;;;11.05;5.70;;;;;;;28.75;41.27;100731.44;5010068;28;20049;-79
2022/06/22 02:21:53;;;;;;;7.72;5.40;;;;;;;28.60;41.19;100703.13;4991934;28;20065;-79
2022/06/22 02:24:27;;;;;;;7.70;5.45;;;;;;;28.62;41.40;100718.16;4993458;28;20112;-79
2022/06/22 02:27:13;;;;;;;7.63;5.32;;;;;;;28.83;41.97;100740.25;5012567;28;20088;-78
2022/06/22 02:29:51;;;;;;;7.15;5.53;;;;;;;28.44;41.17;100682.94;5012647;28;20104;-79
2022/06/22 02:32:21;;;;;;;7.35;5.72;;;;;;;28.76;41.20;100734.97;5008650;28;20112;-78
2022/06/22 02:34:52;;;;;;;5.78;4.88;;;;;;;28.81;40.96;100729.56;5009853;28;20060;-79
2022/06/22 02:37:22;;;;;;;9.57;5.73;;;;;;;28.71;40.84;100727.53;4991729;28;20041;-79
2022/06/22 02:39:53;;;;;;;8.25;5.43;;;;;;;28.63;41.40;100728.00;5007121;28;20058;-78
2022/06/22 02:45:07;;;;;;;6.88;5.25;;;;;;;28.61;41.62;100730.16;5016646;28;20073;-77
2022/06/22 02:47:56;;;;;;;5.75;5.13;;;;;;;27.92;41.86;100622.19;5007929;28;20046;-79
2022/06/22 02:50:47;;;;;;;8.52;5.75;;;;;;;28.54;41.95;100724.03;5007552;28;20104;-79
2022/06/22 02:53:25;;;;;;;13.82;5.40;;;;;;;28.51;41.88;100730.84;5007231;28;20056;-79
2022/06/22 02:55:53;;;;;;;9.48;5.40;;;;;;;28.53;42.08;100731.41;4991141;28;20578;-79
2022/06/22 02:58:37;;;;;;;5.72;5.10;;;;;;;28.44;41.63;100732.91;5007299;28;20519;-79
2022/06/22 03:01:12;;;;;;;7.03;5.07;;;;;;;28.28;41.77;100707.31;5008465;28;20052;-79
2022/06/22 03:03:42;;;;;;;12.15;5.72;;;;;;;28.44;41.98;100729.34;5007042;28;20078;-80
2022/06/22 03:06:12;;;;;;;8.82;6.10;;;;;;;28.28;41.94;100718.22;4997002;28;20140;-79
2022/06/22 03:08:39;;;;;;;8.02;5.93;;;;;;;28.26;41.94;100736.75;4991033;28;20357;-80
2022/06/22 03:11:09;;;;;;;7.20;6.18;;;;;;;28.18;42.08;100742.66;4991168;28;20112;-78
2022/06/22 03:13:44;;;;;;;12.02;6.93;;;;;;;28.06;42.07;100729.09;4990930;28;20069;-78
2022/06/22 03:16:32;;;;;;;7.28;6.05;;;;;;;28.03;42.01;100728.75;4990835;28;20046;-79
2022/06/22 03:19:08;;;;;;;6.78;6.18;;;;;;;28.05;42.40;100729.31;4991412;28;20052;-79
2022/06/22 03:21:35;;;;;;;7.03;6.32;;;;;;;28.01;42.13;100739.09;4992725;28;20463;-79
2022/06/22 03:24:21;;;;;;;9.02;6.55;;;;;;;27.94;41.96;100746.59;5016866;28;20042;-79
2022/06/22 03:26:53;;;;;;;15.95;6.75;;;;;;;27.61;42.51;100727.22;5009451;28;20057;-79
2022/06/22 03:29:38;;;;;;;9.43;6.32;;;;;;;27.63;42.73;100751.53;5015879;28;20046;-80
2022/06/22 03:32:10;;;;;;;8.95;6.03;;;;;;;27.46;42.59;100730.53;4998524;28;20066;-79
2022/06/22 03:35:03;;;;;;;11.57;6.43;;;;;;;27.30;42.57;100714.13;4992563;28;20494;-80
2022/06/22 03:37:37;;;;;;;13.00;6.25;;;;;;;27.48;42.82;100750.19;4986056;28;20054;-78
2022/06/22 03:40:39;;;;;;;6.80;5.72;;;;;;;27.35;43.06;100752.38;5008529;28;20050;-78
2022/06/22 03:43:17;;;;;;;9.07;6.68;;;;;;;26.96;43.01;100706.66;4990774;28;20057;-79
2022/06/22 03:45:58;;;;;;;10.23;6.05;;;;;;;27.18;43.61;100755.03;4990192;28;20049;-78
2022/06/22 03:48:29;;;;;;;7.43;5.38;;;;;;;27.17;43.39;100756.09;5006284;28;20061;-78
2022/06/22 03:50:59;;;;;;;;;;;;;;;27.08;43.81;100770.09;5006658;28;20046;-78
2022/06/22 03:53:45;;;;;;;11.68;6.22;;;;;;;26.98;43.86;100760.91;4991384;28;19929;-79
2022/06/22 03:56:15;;;;;;;6.00;5.43;;;;;;;26.82;44.20;100737.97;5002785;28;20050;-78
2022/06/22 03:58:45;;;;;;;9.30;5.25;;;;;;;26.96;44.21;100772.03;5007485;28;20061;-79
2022/06/22 04:01:13;;;;;;;8.50;5.95;;;;;;;26.59;44.50;100728.78;5006097;28;20455;-79
2022/06/22 04:03:41;;;;;;;13.13;6.30;;;;;;;26.71;44.84;100763.34;4990463;28;20472;-79
2022/06/22 04:06:27;;;;;;;8.00;6.07;;;;;;;26.68;45.01;100756.47;4989865;28;20046;-78
2022/06/22 04:08:53;;;;;;;15.50;6.20;;;;;;;26.75;44.84;100769.94;5007380;28;20550;-79
2022/06/22 04:11:26;;;;;;;8.88;5.80;;;;;;;26.80;44.94;100772.81;4990189;28;20085;-78
2022/06/22 04:14:21;;;;;;;9.48;6.35;;;;;;;26.63;44.97;100738.13;4989981;28;20054;-79
2022/06/22 04:16:57;;;;;;;11.45;6.13;;;;;;;26.81;44.56;100760.81;4989521;28;20054;-78
2022/06/22 04:19:38;;;;;;;15.87;5.63;;;;;;;26.90;44.97;100764.84;5006795;28;20054;-80
2022/06/22 04:22:27;;;;;;;16.85;6.25;;;;;;;26.82;45.22;100759.75;5007880;28;20731;-79
2022/06/22 04:25:29;;;;;;;11.23;6.03;;;;;;;26.82;44.84;100773.38;5007700;28;20141;-78
2022/06/22 04:27:58;;;;;;;8.23;6.13;;;;;;;26.69;44.92;100755.41;5001403;28;20049;-79
2022/06/22 04:30:31;;;;;;;12.25;5.90;;;;;;;26.60;44.81;100757.69;4989507;28;20054;-79
2022/06/22 04:33:26;;;;;;;13.95;5.65;;;;;;;26.60;44.43;100752.25;4989046;28;20054;-80
2022/06/22 04:36:06;;;;;;;8.55;5.65;;;;;;;26.66;44.58;100763.22;5006691;28;20100;-79
2022/06/22 04:39:08;;;;;;;9.55;6.32;;;;;;;26.53;44.96;100750.66;4989133;28;20597;-79
2022/06/22 04:41:40;;;;;;;12.32;6.00;;;;;;;26.68;44.40;100756.47;4998843;28;20731;-79
2022/06/22 04:44:15;;;;;;;;;;;;;;;26.69;43.94;100749.13;4991451;28;20041;-78
2022/06/22 04:46:45;;;;;;;7.47;5.35;;;;;;;26.60;43.76;100740.50;4992043;28;19922;-78
2022/06/22 04:49:49;;;;;;;10.75;5.90;;;;;;;26.72;43.82;100740.47;4999571;28;20060;-77
2022/06/22 04:52:33;;;;;;;15.55;5.97;;;;;;;26.83;43.45;100755.97;5023264;28;20507;-78
2022/06/22 04:55:04;;;;;;;10.23;6.22;;;;;;;26.75;43.15;100734.53;4990833;28;20061;-78
2022/06/22 04:57:38;;;;;;;14.32;5.35;;;;;;;26.86;42.30;100747.31;5007829;28;20108;-77
2022/06/22 05:00:13;;;;;;;15.23;5.80;;;;;;;26.84;43.05;100746.72;5006486;28;20124;-81
2022/06/22 05:02:41;;;;;;;7.80;5.95;;;;;;;26.96;42.94;100763.84;5008240;28;20151;-79
2022/06/22 05:05:22;;;;;;;8.93;6.13;;;;;;;26.97;42.42;100754.63;4990935;28;20105;-78
2022/06/22 05:07:59;;;;;;;14.02;5.90;;;;;;;26.48;43.15;100672.44;5007036;28;20057;-78
2022/06/22 05:10:38;;;;;;;17.20;5.53;;;;;;;27.03;42.99;100759.09;5019516;28;20081;-79
2022/06/22 05:13:13;;;;;;;7.10;5.63;;;;;;;26.96;43.24;100742.06;4991456;28;20056;-79
2022/06/22 05:15:42;;;;;;;10.52;5.57;;;;;;;26.82;43.69;100710.72;5007164;28;20077;-79
2022/06/22 05:18:23;;;;;;;11.05;5.93;;;;;;;26.67;43.49;100675.03;5022627;28;20054;-79
2022/06/22 05:20:56;;;;;;;9.93;5.43;;;;;;;27.11;43.59;100740.72;5015326;28;20433;-79
2022/06/22 05:23:26;;;;;;;9.57;5.53;;;;;;;27.23;43.62;100760.59;5025864;28;20100;-78
2022/06/22 05:26:01;;;;;;;7.80;5.78;;;;;;;27.23;43.76;100755.16;5014489;28;20052;-78
2022/06/22 05:28:43;;;;;;;15.68;6.05;;;;;;;27.27;43.91;100754.44;5010600;28;20171;-77
2022/06/22 05:31:16;;;;;;;21.95;6.10;;;;;;;27.27;43.36;100746.25;5009876;28;20049;-78
2022/06/22 05:33:47;;;;;;;12.27;5.90;;;;;;;27.35;43.07;100749.66;5009631;28;20248;-79
2022/06/22 05:36:19;;;;;;;18.02;5.95;;;;;;;27.31;43.63;100743.03;5027762;28;20049;-80
2022/06/22 05:38:48;;;;;;;10.65;5.47;;;;;;;27.35;43.68;100749.66;5025441;28;20057;-79
2022/06/22 05:41:31;;;;;;;14.07;6.57;;;;;;;27.31;43.91;100762.09;5014619;28;20049;-79
2022/06/22 05:44:00;;;;;;;13.23;6.15;;;;;;;27.39;43.39;100781.63;5009259;28;20077;-79
2022/06/22 05:46:28;;;;;;;8.45;6.10;;;;;;;27.43;42.80;100782.81;5026929;28;20077;-79
2022/06/22 05:48:56;;;;;;;9.43;5.65;;;;;;;27.26;42.98;100755.50;5027023;28;20136;-78
2022/06/22 05:51:45;;;;;;;11.15;6.35;;;;;;;27.08;43.99;100729.22;5027354;28;20225;-77
2022/06/22 05:54:27;;;;;;;12.15;5.75;;;;;;;27.51;43.47;100792.50;4992899;28;20049;-77
2022/06/22 05:57:09;;;;;;;13.65;6.13;;;;;;;27.36;43.35;100764.97;5012741;28;20079;-79
2022/06/22 05:59:55;;;;;;;11.43;5.72;;;;;;;27.45;42.87;100769.78;5027683;28;20045;-78
2022/06/22 06:02:36;;;;;;;11.05;6.38;;;;;;;27.55;42.77;100784.63;5010279;28;20102;-78
2022/06/22 06:05:17;;;;;;;11.07;5.82;;;;;;;27.63;42.46;100790.53;5027649;28;20053;-78
2022/06/22 06:07:50;;;;;;;10.80;5.95;;;;;;;27.56;42.94;100769.94;5027238;28;20049;-78
2022/06/22 06:10:33;;;;;;;11.13;5.85;;;;;;;27.73;42.39;100798.06;5011040;28;20061;-78
2022/06/22 06:13:15;;;;;;;11.35;6.18;;;;;;;27.76;43.38;100803.03;5027890;28;20061;-79
2022/06/22 06:15:45;;;;;;;8.50;5.65;;;;;;;27.82;43.31;100803.97;5027782;28;20056;-78
2022/06/22 06:18:17;;;;;;;8.40;6.18;;;;;;;27.84;43.14;100799.09;5027198;28;20051;-79
2022/06/22 06:20:49;;;;;;;22.65;7.15;;;;;;;27.82;43.58;100790.31;5028185;28;20061;-79
2022/06/22 06:23:38;;;;;;;11.20;5.90;;;;;;;27.84;43.99;100805.41;5011024;28;20581;-78
2022/06/22 06:29:30;;;;;;;7.50;5.95;;;;;;;27.71;42.90;100772.94;5025048;28;20585;-78
2022/06/22 06:32:18;;;;;;;13.50;5.90;;;;;;;27.87;42.52;100788.53;4991329;28;20382;-78
2022/06/22 06:34:53;;;;;;;12.50;6.20;;;;;;;27.87;42.72;100788.53;4990952;28;20063;-79
2022/06/22 06:37:48;;;;;;;7.53;5.50;;;;;;;27.92;42.81;100794.06;4990563;28;20057;-78
2022/06/22 06:40:22;;;;;;;6.60;5.20;;;;;;;27.78;42.64;100765.44;5007495;28;20050;-77
2022/06/22 06:43:21;;;;;;;15.68;5.72;;;;;;;27.98;43.31;100799.59;5006725;28;20375;-78
2022/06/22 06:45:49;;;;;;;9.13;5.65;;;;;;;27.90;43.26;100787.22;4959418;28;20054;-78
2022/06/22 06:48:21;;;;;;;12.07;5.38;;;;;;;28.08;42.90;100805.22;5006981;28;20049;-78
2022/06/22 06:50:53;;;;;;;8.55;5.68;;;;;;;27.95;43.19;100794.66;5006147;28;20488;-78
2022/06/22 06:53:32;;;;;;;5.95;5.35;;;;;;;28.10;42.85;100814.00;5010923;28;20046;-79
2022/06/22 06:56:15;;;;;;;7.20;5.32;;;;;;;28.09;43.68;100818.63;5037041;28;20060;-79
2022/06/22 06:58:51;;;;;;;6.82;5.75;;;;;;;27.89;43.50;100789.13;5025943;28;20045;-78
2022/06/22 07:01:22;;;;;;;13.35;5.97;;;;;;;28.04;43.13;100806.81;5027320;28;20088;-79
2022/06/22 07:03:53;;;;;;;9.68;6.28;;;;;;;27.98;42.86;100821.44;5028014;28;20403;-77
2022/06/22 07:06:20;;;;;;;;;;;;;;;28.07;43.67;100847.25;5047108;28;20167;-76
2022/06/22 07:09:00;;;;;;;9.57;5.18;;;;;;;28.21;41.19;100853.22;5031263;28;20378;-76
2022/06/22 07:11:34;;;;;;;9.77;5.28;;;;;;;28.13;40.73;100852.56;5030146;28;20053;-78
2022/06/22 07:14:09;;;;;;;8.77;5.85;;;;;;;28.21;40.32;100848.59;5030883;28;20060;-79
2022/06/22 07:16:36;;;;;;;8.82;5.07;;;;;;;27.60;41.67;100754.72;5030028;28;20044;-79
2022/06/22 07:19:11;;;;;;;7.78;5.15;;;;;;;28.19;41.12;100844.44;5029839;28;20078;-79
2022/06/22 07:21:42;;;;;;;11.32;5.97;;;;;;;27.86;41.40;100803.22;5030022;28;20049;-79
2022/06/22 07:24:29;;;;;;;7.68;5.60;;;;;;;28.20;41.90;100860.56;5048676;28;20075;-77
2022/06/22 07:27:05;;;;;;;26.02;6.63;;;;;;;28.16;41.88;100848.50;5052885;28;20103;-77
2022/06/22 07:29:48;;;;;;;9.60;4.93;;;;;;;28.24;42.35;100863.63;5030230;28;20057;-77
2022/06/22 07:32:34;;;;;;;10.70;5.57;;;;;;;28.20;42.86;100852.38;5027918;28;20415;-78
2022/06/22 07:35:10;;;;;;;13.60;6.10;;;;;;;28.03;42.13;100819.63;5028092;28;20463;-78
2022/06/22 07:37:43;;;;;;;6.43;5.47;;;;;;;28.27;42.19;100853.03;5028302;28;20057;-79
2022/06/22 07:40:21;;;;;;;6.80;5.35;;;;;;;27.88;42.14;100790.16;5041360;28;20104;-79
2022/06/22 07:42:50;;;;;;;13.00;5.80;;;;;;;28.22;42.74;100843.94;5027373;28;20053;-81
2022/06/22 07:45:20;;;;;;;10.82;5.55;;;;;;;28.25;42.67;100844.25;5052225;28;20048;-80
2022/06/22 07:48:17;;;;;;;15.63;5.93;;;;;;;28.38;42.61;100853.22;5028019;28;20056;-80
2022/06/22 07:50:50;;;;;;;13.60;6.05;;;;;;;28.46;43.21;100855.56;5009240;28;20111;-79
2022/06/22 07:53:48;;;;;;;12.88;5.80;;;;;;;28.47;42.96;100849.00;5010310;28;20067;-78
2022/06/22 07:56:46;;;;;;;13.98;5.45;;;;;;;28.41;42.60;100819.94;5014581;28;20060;-80
2022/06/22 07:59:18;;;;;;;12.52;5.78;;;;;;;28.50;43.17;100832.16;5012283;28;20045;-79
2022/06/22 08:01:48;;;;;;;14.27;5.82;;;;;;;28.13;43.34;100767.09;5010807;28;20057;-79
2022/06/22 08:04:18;;;;;;;6.90;5.28;;;;;;;28.74;43.04;100852.72;5009551;28;20049;-79
2022/06/22 08:07:10;;;;;;;10.27;5.90;;;;;;;28.65;43.61;100828.81;5010107;28;20146;-79
2022/06/22 08:09:41;;;;;;;18.27;5.78;;;;;;;28.78;43.99;100844.81;5001178;28;20479;-78
2022/06/22 08:12:15;;;;;;;9.47;6.13;;;;;;;28.92;42.87;100853.50;5009928;28;20057;-78
2022/06/22 08:14:44;;;;;;;16.02;5.93;;;;;;;28.97;42.64;100850.84;5009658;28;20780;-77
2022/06/22 08:17:31;;;;;;;10.18;5.90;;;;;;;28.97;42.04;100848.09;5013691;28;20104;-79
2022/06/22 08:19:58;;;;;;;12.13;6.25;;;;;;;29.06;42.80;100843.03;5003145;28;20629;-79
2022/06/22 08:22:25;;;;;;;10.80;5.55;;;;;;;28.91;42.75;100794.44;5013793;28;20653;-78
2022/06/22 08:24:56;;;;;;;13.13;6.15;;;;;;;28.95;41.35;100790.13;5014246;28;20253;-79
2022/06/22 08:27:27;;;;;;;11.98;5.70;;;;;;;28.88;41.10;100767.63;5013988;28;20609;-78
2022/06/22 08:29:56;;;;;;;10.88;6.00;;;;;;;29.21;41.62;100823.28;5013861;28;20060;-79
2022/06/22 08:32:36;;;;;;;20.80;6.65;;;;;;;29.32;41.80;100834.09;5031282;28;20049;-77
2022/06/22 08:35:11;;;;;;;7.32;5.47;;;;;;;29.14;41.19;100816.09;5013453;28;20479;-79
2022/06/22 08:37:44;;;;;;;11.88;5.70;;;;;;;29.11;41.68;100811.16;5013165;28;20499;-79
2022/06/22 08:40:36;;;;;;;12.63;6.40;;;;;;;29.34;41.22;100845.56;5031197;28;20045;-78
2022/06/22 08:43:21;;;;;;;14.20;6.38;;;;;;;29.44;41.01;100839.41;5013476;28;20059;-79
2022/06/22 08:46:06;;;;;;;14.18;5.90;;;;;;;29.40;41.34;100833.63;5013426;28;20095;-78
2022/06/22 08:48:54;;;;;;;14.93;6.28;;;;;;;29.33;41.21;100807.56;5013020;28;20475;-78
2022/06/22 08:51:54;;;;;;;12.85;6.13;;;;;;;29.51;40.46;100823.63;5013417;28;20119;-78
2022/06/22 08:54:53;;;;;;;17.15;5.95;;;;;;;28.98;40.54;100760.41;5012215;28;20454;-77
2022/06/22 08:57:38;;;;;;;11.57;5.75;;;;;;;29.14;40.74;100786.03;5012937;28;20069;-78
2022/06/22 09:00:05;;;;;;;14.85;5.88;;;;;;;29.39;40.25;100825.66;5013260;28;20057;-77
2022/06/22 09:03:11;;;;;;;10.70;4.97;;;;;;;29.39;41.16;100820.19;5034023;28;20113;-76
2022/06/22 09:06:15;;;;;;;19.65;6.15;;;;;;;29.38;40.84;100821.28;5018101;28;20045;-78
2022/06/22 09:09:11;;;;;;;8.82;5.35;;;;;;;29.43;41.24;100821.34;5016438;28;20046;-78
2022/06/22 09:11:57;;;;;;;10.98;5.85;;;;;;;29.43;41.50;100818.63;5014869;28;20066;-79
2022/06/22 09:14:43;;;;;;;9.65;5.65;;;;;;;29.47;41.44;100825.22;5014727;28;20050;-77
2022/06/22 09:17:37;;;;;;;9.73;5.05;;;;;;;29.37;41.76;100801.34;5013811;28;20061;-77
2022/06/22 09:20:25;;;;;;;10.65;5.63;;;;;;;29.47;40.83;100822.50;5032015;28;20049;-78
2022/06/22 09:23:08;;;;;;;10.57;5.78;;;;;;;29.46;40.54;100809.88;5015205;28;20326;-78
2022/06/22 09:25:47;;;;;;;12.20;5.72;;;;;;;29.44;41.66;100792.91;5033161;28;20053;-78
2022/06/22 09:28:43;;;;;;;13.15;6.43;;;;;;;29.29;40.85;100757.22;5034572;28;20098;-77
2022/06/22 09:31:35;;;;;;;10.68;6.47;;;;;;;29.68;40.61;100798.09;5018252;28;20107;-78
2022/06/22 09:34:33;;;;;;;13.07;6.40;;;;;;;29.69;40.84;100805.25;5031932;28;20494;-78
2022/06/22 09:37:02;;;;;;;17.20;6.57;;;;;;;29.63;40.59;100792.56;5049700;28;20049;-78
2022/06/22 09:39:29;;;;;;;14.57;4.93;;;;;;;29.72;41.61;100801.97;5024033;28;20056;-80
2022/06/22 09:42:23;;;;;;;28.08;7.15;;;;;;;29.29;41.74;100747.09;5012297;28;20057;-78
2022/06/22 09:44:53;;;;;;;10.45;6.47;;;;;;;29.82;41.59;100829.44;5012266;28;20538;-79
2022/06/22 09:47:57;;;;;;;14.30;6.28;;;;;;;29.92;41.29;100829.53;5011799;28;20095;-78
2022/06/22 09:50:40;;;;;;;11.73;5.75;;;;;;;29.90;40.90;100836.34;5012435;28;20057;-79
2022/06/22 09:53:32;;;;;;;20.33;6.55;;;;;;;29.84;40.91;100815.50;5012638;28;20046;-77
2022/06/22 09:56:22;;;;;;;16.77;6.50;;;;;;;29.65;41.44;100782.19;5030490;28;20057;-79
2022/06/22 09:59:07;;;;;;;11.95;6.95;;;;;;;29.82;40.92;100815.75;5028976;28;20049;-79
2022/06/22 10:01:41;;;;;;;14.63;6.68;;;;;;;29.69;40.64;100808.81;5010834;28;20050;-78
2022/06/22 10:04:43;;;;;;;15.48;7.20;;;;;;;30.06;41.32;100851.81;5008941;28;20050;-78
2022/06/22 10:07:13;;;;;;;12.13;6.63;;;;;;;29.73;41.44;100795.41;5011151;28;20546;-78
2022/06/22 10:10:19;;;;;;;10.02;6.47;;;;;;;30.26;41.23;100864.88;5011816;28;20088;-78
2022/06/22 10:12:48;;;;;;;15.27;6.43;;;;;;;30.23;40.64;100852.50;5017835;28;20049;-78
2022/06/22 10:15:45;;;;;;;11.13;6.07;;;;;;;30.22;41.51;100850.88;5031252;28;20226;-76
2022/06/22 10:18:35;;;;;;;13.07;6.32;;;;;;;30.18;41.77;100854.41;5030967;28;20059;-79
2022/06/22 10:21:23;;;;;;;13.63;6.38;;;;;;;30.07;41.78;100808.84;5031828;28;20052;-77
2022/06/22 10:24:00;;;;;;;12.23;7.20;;;;;;;30.07;42.28;100800.63;5048817;28;20057;-78
2022/06/22 10:26:59;;;;;;;9.20;5.75;;;;;;;30.17;41.78;100795.22;5031143;28;20076;-79
2022/06/22 10:30:04;;;;;;;21.38;6.80;;;;;;;30.71;41.43;100836.19;5049780;28;20053;-78
2022/06/22 10:32:56;;;;;;;10.38;6.47;;;;;;;30.87;41.56;100823.41;5031285;28;20134;-78
2022/06/22 10:36:03;;;;;;;10.70;6.30;;;;;;;31.07;40.91;100823.50;5031695;28;20146;-78
2022/06/22 10:38:51;;;;;;;11.20;6.32;;;;;;;31.34;40.31;100786.00;5030294;28;20041;-81
2022/06/22 10:45:11;;;;;;;11.10;6.05;;;;;;;31.21;41.21;100785.44;5049218;28;20506;-77
2022/06/22 10:48:00;;;;;;;8.55;5.90;;;;;;;30.90;41.12;100706.94;5031539;28;20502;-79
2022/06/22 10:50:36;;;;;;;12.07;6.28;;;;;;;31.25;40.83;100761.03;5031001;28;20118;-78
2022/06/22 10:53:22;;;;;;;9.65;6.00;;;;;;;31.45;41.60;100774.81;5022802;28;20041;-78
2022/06/22 10:56:04;;;;;;;7.95;5.90;;;;;;;31.58;39.61;100746.06;5011232;28;20366;-78
2022/06/22 10:58:54;;;;;;;9.60;5.47;;;;;;;31.69;41.13;100769.63;5028810;28;20148;-79
2022/06/22 11:01:55;;;;;;;9.27;5.82;;;;;;;31.57;41.18;100779.22;5010786;28;20065;-79
2022/06/22 11:04:31;;;;;;;6.78;5.43;;;;;;;31.42;39.94;100780.03;5008678;28;20151;-79
2022/06/22 11:07:29;;;;;;;7.05;5.20;;;;;;;31.50;40.55;100730.13;4991764;28;20061;-78
2022/06/22 11:10:08;;;;;;;8.18;5.70;;;;;;;31.33;40.17;100733.06;4994011;28;20128;-80
2022/06/22 11:12:44;;;;;;;11.27;6.10;;;;;;;31.75;40.11;100788.84;5003152;28;20517;-80
2022/06/22 11:15:33;;;;;;;9.57;6.30;;;;;;;31.62;39.91;100791.03;5029716;28;20048;-79
2022/06/22 11:18:18;;;;;;;12.02;5.50;;;;;;;31.71;41.26;100800.38;5030446;28;20494;-79
2022/06/22 11:21:03;;;;;;;6.93;4.85;;;;;;;31.50;40.84;100743.81;5030475;28;20041;-80
2022/06/22 11:23:30;;;;;;;11.35;5.78;;;;;;;31.76;40.04;100752.09;5029837;28;20111;-80
2022/06/22 11:32:13;;;;;;;7.07;6.10;;;;;;;31.88;40.72;100782.81;5049054;28;20057;-79
2022/06/22 11:34:52;;;;;;;8.80;5.68;;;;;;;31.87;38.38;100793.00;5033512;28;20047;-78
2022/06/22 11:37:38;;;;;;;8.02;5.90;;;;;;;31.57;38.16;100738.91;5037563;28;20052;-79
2022/06/22 11:40:33;;;;;;;6.70;5.72;;;;;;;31.90;39.56;100786.94;5044470;28;20064;-79
2022/06/22 11:43:18;;;;;;;12.18;6.50;;;;;;;32.00;38.00;100813.59;5039424;28;20053;-79
2022/06/22 11:46:15;;;;;;;10.55;5.88;;;;;;;31.81;39.62;100735.63;5058501;28;20087;-79
2022/06/22 11:49:05;;;;;;;11.25;6.22;;;;;;;32.16;36.65;100786.94;5043142;28;20059;-80
2022/06/22 11:51:56;;;;;;;8.30;5.60;;;;;;;32.24;38.48;100785.59;5031515;28;20245;-78
2022/06/22 11:54:26;;;;;;;9.13;5.63;;;;;;;32.11;38.69;100792.44;5011559;28;20064;-78
2022/06/22 11:57:05;;;;;;;6.93;6.05;;;;;;;32.05;37.59;100782.59;5009847;28;20076;-78
2022/06/22 11:59:44;;;;;;;8.00;5.57;;;;;;;32.14;38.35;100791.91;5010081;28;20050;-78
2022/06/22 12:02:42;;;;;;;7.43;5.32;;;;;;;32.02;39.08;100805.91;5012635;28;20057;-78
2022/06/22 12:05:18;;;;;;;7.07;5.63;;;;;;;31.85;38.75;100802.59;5030485;28;20052;-80
2022/06/22 12:08:12;;;;;;;8.68;5.88;;;;;;;30.99;39.16;100645.00;5034281;28;20073;-80
2022/06/22 12:11:00;;;;;;;9.32;5.45;;;;;;;32.15;35.93;100794.38;5034812;28;20034;-78
2022/06/22 12:17:16;;;;;;;11.43;6.50;;;;;;;31.81;38.38;100749.34;5027092;28;20144;-78
2022/06/22 12:20:16;;;;;;;7.35;5.63;;;;;;;32.00;38.54;100791.63;5010528;28;20604;-79
2022/06/22 12:23:25;;;;;;;10.95;5.47;;;;;;;32.03;39.70;100793.81;5027759;28;20087;-79
2022/06/22 12:26:12;;;;;;;8.07;5.57;;;;;;;32.03;39.11;100752.66;5002201;28;20087;-80
2022/06/22 12:28:47;;;;;;;11.68;5.65;;;;;;;31.33;37.25;100660.94;5027485;28;20072;-78
2022/06/22 12:31:17;;;;;;;8.20;5.20;;;;;;;32.21;39.78;100781.47;5009867;28;20396;-80
2022/06/22 12:33:45;;;;;;;7.97;5.32;;;;;;;32.30;39.85;100776.22;5010770;28;20128;-78
2022/06/22 12:36:26;;;;;;;6.95;5.63;;;;;;;32.09;38.97;100770.78;5009686;28;20089;-79
2022/06/22 12:38:53;;;;;;;;;;;;;;;31.70;38.44;100768.56;5009604;28;20038;-77
2022/06/22 12:42:03;;;;;;;5.70;5.20;;;;;;;31.90;40.57;100764.16;5026342;28;20473;-79
2022/06/22 12:44:54;;;;;;;7.80;5.78;;;;;;;31.58;40.08;100717.75;5026833;28;20140;-78